createdAt,value
2023-02-19T00:00:05.005Z,101842.78
2023-02-19T00:02:31.536Z,101832.16
2023-02-19T00:04:58.101Z,101842.88
2023-02-19T00:07:24.642Z,101846.44
2023-02-19T00:09:51.133Z,101844.72
2023-02-19T00:12:17.655Z,101850.06
2023-02-19T00:14:44.266Z,101845.69
2023-02-19T00:17:10.784Z,101856.41
2023-02-19T00:19:37.327Z,101851.91
2023-02-19T00:22:03.818Z,101855.41
2023-02-19T00:24:30.330Z,101857.25
2023-02-19T00:26:56.864Z,101859.94
2023-02-19T00:29:24.978Z,101850.06
2023-02-19T00:31:51.663Z,101854.56
2023-02-19T00:34:18.213Z,101853.72
2023-02-19T00:36:44.711Z,101855.41
2023-02-19T00:39:15.719Z,101855.56
2023-02-19T00:41:42.604Z,101862.75
2023-02-19T00:44:11.320Z,101853.72
2023-02-19T00:46:45.961Z,101858.25
2023-02-19T00:49:22.072Z,101868.09
2023-02-19T00:51:50.535Z,101863.59
2023-02-19T00:54:17.433Z,101863.59
2023-02-19T00:56:44.144Z,101868.97
2023-02-19T00:59:11.034Z,101874.31
2023-02-19T01:01:37.822Z,101870.78
2023-02-19T01:04:06.547Z,101877.00
2023-02-19T01:06:34.633Z,101871.63
2023-02-19T01:09:01.215Z,101880.66
2023-02-19T01:11:27.944Z,101871.63
2023-02-19T01:13:58.594Z,101887.72
2023-02-19T01:16:25.284Z,101881.50
2023-02-19T01:18:52.201Z,101887.72
2023-02-19T01:21:22.051Z,101878.81
2023-02-19T01:23:50.087Z,101892.22
2023-02-19T01:26:22.168Z,101888.69
2023-02-19T01:28:48.783Z,101890.41
2023-02-19T01:31:24.123Z,101891.47
2023-02-19T01:33:53.590Z,101887.84
2023-02-19T01:36:20.332Z,101893.22
2023-02-19T01:38:47.419Z,101892.31
2023-02-19T01:41:17.489Z,101887.84
2023-02-19T01:44:17.075Z,101888.94
2023-02-19T01:46:45.211Z,101895.88
2023-02-19T01:49:16.401Z,101895.13
2023-02-19T01:51:50.974Z,101905.00
2023-02-19T01:54:22.496Z,101896.97
2023-02-19T01:56:49.922Z,101892.47
2023-02-19T01:59:17.159Z,101897.81
2023-02-19T02:01:43.912Z,101903.31
2023-02-19T02:04:13.360Z,101901.47
2023-02-19T02:06:44.140Z,101894.44
2023-02-19T02:09:29.475Z,101909.53
2023-02-19T02:11:56.034Z,101901.47
2023-02-19T02:14:26.824Z,101906.00
2023-02-19T02:17:34.359Z,101906.09
2023-02-19T02:20:41.219Z,101905.25
2023-02-19T02:23:44.824Z,101906.09
2023-02-19T02:26:35.438Z,101907.94
2023-02-19T02:29:45.930Z,101906.94
2023-02-19T02:32:26.874Z,101915.13
2023-02-19T02:35:24.205Z,101916.09
2023-02-19T02:37:54.115Z,101918.53
2023-02-19T02:40:20.845Z,101920.34
2023-02-19T02:42:47.625Z,101914.25
2023-02-19T02:45:37.257Z,101924.97
2023-02-19T02:48:30.144Z,101926.06
2023-02-19T02:51:25.572Z,101929.50
2023-02-19T02:54:22.870Z,101935.69
2023-02-19T02:56:50.239Z,101921.47
2023-02-19T02:59:21.817Z,101922.44
2023-02-19T03:02:14.256Z,101937.63
2023-02-19T03:05:03.885Z,101936.78
2023-02-19T03:07:37.114Z,101948.34
2023-02-19T03:10:07.855Z,101946.66
2023-02-19T03:12:57.431Z,101947.50
2023-02-19T03:15:47.372Z,101947.50
2023-02-19T03:18:34.333Z,101952.00
2023-02-19T03:21:02.461Z,101954.69
2023-02-19T03:23:51.602Z,101953.84
2023-02-19T03:26:19.808Z,101963.56
2023-02-19T03:29:08.854Z,101955.66
2023-02-19T03:31:39.815Z,101954.69
2023-02-19T03:34:12.663Z,101956.50
2023-02-19T03:36:50.802Z,101963.69
2023-02-19T03:39:21.620Z,101956.66
2023-02-19T03:42:17.250Z,101969.19
2023-02-19T03:45:21.978Z,101969.19
2023-02-19T03:47:53.162Z,101975.50
2023-02-19T03:50:19.599Z,101976.13
2023-02-19T03:52:52.345Z,101975.41
2023-02-19T03:56:04.615Z,101984.53
2023-02-19T03:59:08.118Z,101985.38
2023-02-19T04:01:34.561Z,101994.16
2023-02-19T04:04:09.185Z,101989.75
2023-02-19T04:06:37.798Z,101989.75
2023-02-19T04:09:08.683Z,101989.75
2023-02-19T04:11:36.611Z,101993.31
2023-02-19T04:14:10.301Z,101996.09
2023-02-19T04:16:39.641Z,102002.41
2023-02-19T04:19:10.852Z,102004.88
2023-02-19T04:21:39.631Z,102003.13
2023-02-19T04:24:14.581Z,102004.97
2023-02-19T04:26:42.389Z,102013.00
2023-02-19T04:29:08.945Z,102013.97
2023-02-19T04:31:36.487Z,102015.81
2023-02-19T04:34:03.878Z,102014.84
2023-02-19T04:36:31.627Z,102028.34
2023-02-19T04:38:58.273Z,102029.22
2023-02-19T04:41:25.127Z,102041.75
2023-02-19T04:43:51.644Z,102048.81
2023-02-19T04:46:18.258Z,102047.09
2023-02-19T04:48:44.892Z,102056.97
2023-02-19T04:51:11.957Z,102061.47
2023-02-19T04:53:38.733Z,102066.84
2023-02-19T04:56:11.033Z,102065.97
2023-02-19T04:58:37.599Z,102062.34
2023-02-19T05:01:04.558Z,102069.53
2023-02-19T05:03:31.334Z,102064.16
2023-02-19T05:05:57.858Z,102071.31
2023-02-19T05:08:24.398Z,102079.34
2023-02-19T05:10:50.967Z,102088.28
2023-02-19T05:13:17.524Z,102083.84
2023-02-19T05:15:54.766Z,102082.16
2023-02-19T05:18:21.304Z,102090.06
2023-02-19T05:20:47.791Z,102088.38
2023-02-19T05:23:14.289Z,102099.09
2023-02-19T05:25:40.791Z,102100.78
2023-02-19T05:28:19.295Z,102108.94
2023-02-19T05:30:48.731Z,102096.31
2023-02-19T05:33:16.280Z,102102.75
2023-02-19T05:35:53.195Z,102098.34
2023-02-19T05:38:20.032Z,102100.06
2023-02-19T05:40:46.965Z,102102.75
2023-02-19T05:43:14.258Z,102104.44
2023-02-19T05:45:41.247Z,102102.75
2023-02-19T05:48:08.726Z,102095.69
2023-02-19T05:50:38.258Z,102094.69
2023-02-19T05:53:06.379Z,102101.03
2023-02-19T05:55:36.411Z,102111.75
2023-02-19T05:58:03.400Z,102121.50
2023-02-19T06:00:30.519Z,102112.69
2023-02-19T06:02:57.132Z,102121.63
2023-02-19T06:05:23.734Z,102109.94
2023-02-19T06:07:50.564Z,102120.72
2023-02-19T06:10:18.205Z,102128.78
2023-02-19T06:12:45.362Z,102133.19
2023-02-19T06:15:11.858Z,102142.16
2023-02-19T06:17:38.406Z,102144.00
2023-02-19T06:20:05.165Z,102143.91
2023-02-19T06:22:31.668Z,102148.41
2023-02-19T06:24:58.199Z,102167.25
2023-02-19T06:27:24.786Z,102163.72
2023-02-19T06:29:51.304Z,102162.03
2023-02-19T06:32:18.035Z,102169.94
2023-02-19T06:34:44.737Z,102162.88
2023-02-19T06:37:11.258Z,102162.13
2023-02-19T06:39:37.848Z,102169.22
2023-02-19T06:42:04.475Z,102172.81
2023-02-19T06:44:31.029Z,102167.47
2023-02-19T06:46:57.559Z,102172.81
2023-02-19T06:49:24.093Z,102179.06
2023-02-19T06:51:50.634Z,102188.06
2023-02-19T06:54:17.138Z,102191.56
2023-02-19T06:56:46.139Z,102196.94
2023-02-19T06:59:18.823Z,102195.13
2023-02-19T07:01:46.124Z,102203.19
2023-02-19T07:04:12.758Z,102199.53
2023-02-19T07:06:39.348Z,102211.09
2023-02-19T07:09:07.665Z,102211.09
2023-02-19T07:11:36.402Z,102219.84
2023-02-19T07:14:04.855Z,102226.19
2023-02-19T07:16:31.480Z,102227.03
2023-02-19T07:18:59.123Z,102230.56
2023-02-19T07:21:25.982Z,102231.44
2023-02-19T07:23:52.999Z,102240.31
2023-02-19T07:26:20.595Z,102240.31
2023-02-19T07:28:48.723Z,102240.31
2023-02-19T07:31:17.597Z,102254.56
2023-02-19T07:33:45.108Z,102259.94
2023-02-19T07:36:12.738Z,102260.78
2023-02-19T07:38:39.898Z,102256.41
2023-02-19T07:41:07.107Z,102264.44
2023-02-19T07:43:35.908Z,102271.50
2023-02-19T07:46:04.065Z,102276.00
2023-02-19T07:48:30.664Z,102266.13
2023-02-19T07:50:59.681Z,102274.31
2023-02-19T07:53:27.667Z,102288.53
2023-02-19T07:55:54.494Z,102284.03
2023-02-19T07:58:20.996Z,102291.22
2023-02-19T08:00:47.603Z,102295.59
2023-02-19T08:03:14.173Z,102301.94
2023-02-19T08:05:42.833Z,102297.53
2023-02-19T08:08:14.389Z,102293.91
2023-02-19T08:10:59.573Z,102288.53
2023-02-19T08:13:30.105Z,102300.22
2023-02-19T08:16:20.140Z,102306.53
2023-02-19T08:18:49.214Z,102317.03
2023-02-19T08:21:18.198Z,102321.53
2023-02-19T08:23:46.258Z,102310.81
2023-02-19T08:26:12.805Z,102315.34
2023-02-19T08:28:39.366Z,102323.38
2023-02-19T08:31:07.546Z,102324.22
2023-02-19T08:33:34.587Z,102336.63
2023-02-19T08:36:06.466Z,102342.97
2023-02-19T08:38:35.837Z,102347.34
2023-02-19T08:41:10.598Z,102359.91
2023-02-19T08:43:37.460Z,102351.75
2023-02-19T08:46:04.399Z,102361.59
2023-02-19T08:48:30.947Z,102351.75
2023-02-19T08:50:59.695Z,102345.53
2023-02-19T08:53:26.497Z,102350.88
2023-02-19T08:55:53.416Z,102343.69
2023-02-19T08:58:20.022Z,102349.91
2023-02-19T09:00:46.629Z,102350.88
2023-02-19T09:03:13.166Z,102357.09
2023-02-19T09:05:40.005Z,102357.94
2023-02-19T09:08:06.581Z,102353.47
2023-02-19T09:10:33.117Z,102340.94
2023-02-19T09:12:59.785Z,102356.03
2023-02-19T09:15:26.414Z,102371.91
2023-02-19T09:17:53.286Z,102365.56
2023-02-19T09:20:20.044Z,102377.00
2023-02-19T09:22:47.101Z,102375.09
2023-02-19T09:25:13.633Z,102376.78
2023-02-19T09:27:40.116Z,102387.41
2023-02-19T09:30:07.202Z,102396.31
2023-02-19T09:32:33.848Z,102411.53
2023-02-19T09:35:00.390Z,102415.06
2023-02-19T09:37:27.985Z,102424.81
2023-02-19T09:39:55.335Z,102423.97
2023-02-19T09:42:29.766Z,102431.16
2023-02-19T09:44:59.251Z,102432.84
2023-02-19T09:47:29.473Z,102431.88
2023-02-19T09:50:00.464Z,102441.75
2023-02-19T09:52:44.757Z,102447.09
2023-02-19T09:55:20.627Z,102448.94
2023-02-19T09:57:47.525Z,102459.66
2023-02-19T10:00:23.503Z,102460.63
2023-02-19T10:03:00.009Z,102458.78
2023-02-19T10:05:27.304Z,102460.50
2023-02-19T10:07:55.564Z,102466.84
2023-02-19T10:10:35.276Z,102475.72
2023-02-19T10:13:30.375Z,102476.56
2023-02-19T10:15:59.048Z,102480.09
2023-02-19T10:18:29.150Z,102485.47
2023-02-19T10:20:57.014Z,102497.16
2023-02-19T10:23:25.211Z,102485.59
2023-02-19T10:25:56.678Z,102498.97
2023-02-19T10:28:27.346Z,102501.66
2023-02-19T10:30:57.160Z,102505.41
2023-02-19T10:33:24.708Z,102516.88
2023-02-19T10:35:55.904Z,102515.06
2023-02-19T10:38:45.287Z,102519.56
2023-02-19T10:41:18.034Z,102522.25
2023-02-19T10:44:04.714Z,102525.78
2023-02-19T10:46:43.499Z,102512.47
2023-02-19T10:49:51.617Z,102523.09
2023-02-19T10:52:28.282Z,102527.50
2023-02-19T10:55:24.806Z,102524.94
2023-02-19T10:57:51.412Z,102522.97
2023-02-19T11:00:27.491Z,102523.09
2023-02-19T11:03:15.286Z,102515.06
2023-02-19T11:06:00.586Z,102519.44
2023-02-19T11:08:27.325Z,102522.13
2023-02-19T11:10:54.039Z,102514.09
2023-02-19T11:13:32.244Z,102526.63
2023-02-19T11:16:00.151Z,102529.19
2023-02-19T11:18:32.573Z,102532.84
2023-02-19T11:21:02.147Z,102531.03
2023-02-19T11:23:36.193Z,102540.88
2023-02-19T11:26:15.581Z,102546.25
2023-02-19T11:28:43.494Z,102542.59
2023-02-19T11:31:19.428Z,102538.22
2023-02-19T11:33:54.112Z,102538.09
2023-02-19T11:36:23.518Z,102550.53
2023-02-19T11:38:50.058Z,102549.69
2023-02-19T11:41:51.311Z,102546.13
2023-02-19T11:44:44.019Z,102553.22
2023-02-19T11:47:45.051Z,102552.25
2023-02-19T11:50:26.638Z,102535.31
2023-02-19T11:53:11.107Z,102537.88
2023-02-19T11:56:05.908Z,102545.06
2023-02-19T11:59:09.991Z,102536.19
2023-02-19T12:01:48.858Z,102536.06
2023-02-19T12:04:27.435Z,102542.25
2023-02-19T12:07:12.438Z,102537.78
2023-02-19T12:09:41.741Z,102548.41
2023-02-19T12:12:15.151Z,102550.09
2023-02-19T12:15:00.475Z,102552.91
2023-02-19T12:17:51.544Z,102566.19
2023-02-19T12:20:31.415Z,102559.88
2023-02-19T12:23:30.435Z,102543.88
2023-02-19T12:26:04.369Z,102556.22
2023-02-19T12:28:49.715Z,102553.63
2023-02-19T12:31:28.528Z,102550.09
2023-02-19T12:34:10.123Z,102553.88
2023-02-19T12:37:08.806Z,102562.84
2023-02-19T12:39:50.515Z,102558.34
2023-02-19T12:42:35.700Z,102557.50
2023-02-19T12:45:16.489Z,102563.81
2023-02-19T12:47:45.564Z,102574.53
2023-02-19T12:50:19.062Z,102572.84
2023-02-19T12:52:50.811Z,102592.44
2023-02-19T12:55:30.770Z,102589.00
2023-02-19T12:58:02.022Z,102595.25
2023-02-19T13:00:35.614Z,102608.72
2023-02-19T13:03:22.176Z,102609.72
2023-02-19T13:06:36.249Z,102620.53
2023-02-19T13:09:15.777Z,102625.78
2023-02-19T13:11:50.607Z,102632.97
2023-02-19T13:14:33.922Z,102632.97
2023-02-19T13:17:09.381Z,102640.16
2023-02-19T13:19:38.476Z,102641.84
2023-02-19T13:22:47.007Z,102636.69
2023-02-19T13:25:16.285Z,102640.03
2023-02-19T13:28:00.962Z,102628.47
2023-02-19T13:30:47.266Z,102641.09
2023-02-19T13:33:35.129Z,102658.13
2023-02-19T13:36:10.474Z,102662.53
2023-02-19T13:38:41.036Z,102678.59
2023-02-19T13:41:18.652Z,102676.91
2023-02-19T13:43:46.976Z,102673.25
2023-02-19T13:46:20.204Z,102677.66
2023-02-19T13:48:46.808Z,102671.47
2023-02-19T13:51:15.914Z,102674.13
2023-02-19T13:53:45.549Z,102687.41
2023-02-19T13:56:30.160Z,102690.22
2023-02-19T13:58:58.584Z,102692.78
2023-02-19T14:01:53.211Z,102693.75
2023-02-19T14:04:38.255Z,102693.50
2023-02-19T14:07:04.739Z,102698.03
2023-02-19T14:09:34.338Z,102695.34
2023-02-19T14:12:17.595Z,102695.13
2023-02-19T14:14:45.701Z,102688.53
2023-02-19T14:17:41.910Z,102683.91
2023-02-19T14:20:17.585Z,102693.56
2023-02-19T14:22:49.683Z,102692.59
2023-02-19T14:25:28.590Z,102693.34
2023-02-19T14:28:04.643Z,102685.22
2023-02-19T14:30:48.745Z,102678.88
2023-02-19T14:33:18.244Z,102682.34
2023-02-19T14:35:47.421Z,102667.09
2023-02-19T14:38:20.468Z,102665.16
2023-02-19T14:40:48.594Z,102647.25
2023-02-19T14:43:18.421Z,102651.66
2023-02-19T14:46:15.447Z,102651.66
2023-02-19T14:48:46.439Z,102657.66
2023-02-19T14:51:36.071Z,102653.06
2023-02-19T14:54:15.327Z,102652.19
2023-02-19T14:56:45.787Z,102644.88
2023-02-19T14:59:12.257Z,102643.06
2023-02-19T15:01:39.215Z,102641.28
2023-02-19T15:04:06.603Z,102642.00
2023-02-19T15:06:35.864Z,102631.06
2023-02-19T15:09:07.256Z,102625.50
2023-02-19T15:11:35.780Z,102631.59
2023-02-19T15:14:05.570Z,102649.19
2023-02-19T15:16:35.702Z,102643.75
2023-02-19T15:19:07.650Z,102653.41
2023-02-19T15:21:38.834Z,102661.25
2023-02-19T15:24:07.012Z,102672.72
2023-02-19T15:26:39.015Z,102671.66
2023-02-19T15:29:12.035Z,102667.91
2023-02-19T15:31:49.680Z,102690.09
2023-02-19T15:34:28.418Z,102693.53
2023-02-19T15:36:59.738Z,102697.81
2023-02-19T15:39:39.206Z,102687.00
2023-02-19T15:42:07.889Z,102690.31
2023-02-19T15:44:40.597Z,102680.44
2023-02-19T15:47:33.321Z,102677.75
2023-02-19T15:50:21.652Z,102689.13
2023-02-19T15:52:59.349Z,102697.19
2023-02-19T15:56:01.080Z,102686.34
2023-02-19T15:58:42.808Z,102685.28
2023-02-19T16:01:28.541Z,102691.50
2023-02-19T16:03:55.757Z,102702.03
2023-02-19T16:06:24.508Z,102709.09
2023-02-19T16:09:03.959Z,102713.50
2023-02-19T16:12:00.398Z,102726.69
2023-02-19T16:14:26.821Z,102726.38
2023-02-19T16:17:10.482Z,102728.84
2023-02-19T16:19:42.983Z,102724.00
2023-02-19T16:22:11.651Z,102724.63
2023-02-19T16:24:45.181Z,102729.78
2023-02-19T16:27:14.794Z,102724.94
2023-02-19T16:29:41.451Z,102731.16
2023-02-19T16:32:16.630Z,102725.69
2023-02-19T16:34:48.120Z,102730.09
2023-02-19T16:37:37.619Z,102736.41
2023-02-19T16:40:07.180Z,102732.78
2023-02-19T16:42:34.907Z,102726.44
2023-02-19T16:45:01.924Z,102732.78
2023-02-19T16:47:30.943Z,102730.97
2023-02-19T16:50:00.385Z,102727.28
2023-02-19T16:52:27.332Z,102729.13
2023-02-19T16:54:53.891Z,102713.88
2023-02-19T16:57:20.830Z,102718.38
2023-02-19T16:59:48.170Z,102721.06
2023-02-19T17:02:22.356Z,102720.22
2023-02-19T17:04:50.011Z,102720.31
2023-02-19T17:07:18.196Z,102713.34
2023-02-19T17:09:45.021Z,102725.91
2023-02-19T17:12:13.939Z,102726.00
2023-02-19T17:14:40.535Z,102727.00
2023-02-19T17:17:07.101Z,102726.25
2023-02-19T17:19:33.900Z,102737.09
2023-02-19T17:22:00.464Z,102736.22
2023-02-19T17:24:26.995Z,102744.41
2023-02-19T17:26:53.597Z,102750.84
2023-02-19T17:29:20.163Z,102758.13
2023-02-19T17:31:46.849Z,102762.63
2023-02-19T17:34:13.426Z,102765.44
2023-02-19T17:36:40.888Z,102762.88
2023-02-19T17:39:08.285Z,102765.66
2023-02-19T17:41:35.124Z,102765.78
2023-02-19T17:44:01.635Z,102780.16
2023-02-19T17:46:28.181Z,102782.94
2023-02-19T17:48:55.410Z,102779.41
2023-02-19T17:51:22.318Z,102762.44
2023-02-19T17:53:49.435Z,102768.88
2023-02-19T17:56:18.820Z,102773.38
2023-02-19T17:58:45.944Z,102783.25
2023-02-19T18:01:12.899Z,102766.31
2023-02-19T18:03:39.712Z,102758.38
2023-02-19T18:06:06.633Z,102753.75
2023-02-19T18:08:33.132Z,102747.50
2023-02-19T18:11:00.266Z,102746.53
2023-02-19T18:13:27.282Z,102759.75
2023-02-19T18:15:54.075Z,102767.69
2023-02-19T18:18:21.183Z,102752.34
2023-02-19T18:20:47.759Z,102755.88
2023-02-19T18:23:14.751Z,102751.25
2023-02-19T18:25:41.234Z,102763.81
2023-02-19T18:28:07.825Z,102746.78
2023-02-19T18:30:34.434Z,102735.16
2023-02-19T18:33:02.321Z,102730.66
2023-02-19T18:35:28.894Z,102743.13
2023-02-19T18:37:55.873Z,102747.50
2023-02-19T18:40:25.892Z,102744.81
2023-02-19T18:42:52.854Z,102748.47
2023-02-19T18:45:19.397Z,102744.81
2023-02-19T18:47:47.965Z,102747.50
2023-02-19T18:50:15.110Z,102749.34
2023-02-19T18:52:41.721Z,102760.94
2023-02-19T18:55:10.742Z,102754.72
2023-02-19T18:57:37.511Z,102754.72
2023-02-19T19:00:08.029Z,102762.75
2023-02-19T19:02:48.434Z,102753.84
2023-02-19T19:05:21.438Z,102749.47
2023-02-19T19:07:48.591Z,102753.00
2023-02-19T19:10:15.131Z,102760.19
2023-02-19T19:12:41.986Z,102770.03
2023-02-19T19:15:08.953Z,102774.47
2023-02-19T19:17:35.591Z,102770.94
2023-02-19T19:20:02.154Z,102772.72
2023-02-19T19:22:28.624Z,102754.91
2023-02-19T19:24:55.161Z,102753.09
2023-02-19T19:27:21.736Z,102757.59
2023-02-19T19:29:49.711Z,102757.72
2023-02-19T19:32:16.287Z,102759.44
2023-02-19T19:34:43.152Z,102758.56
2023-02-19T19:37:09.838Z,102760.41
2023-02-19T19:39:37.149Z,102766.63
2023-02-19T19:42:04.510Z,102756.88
2023-02-19T19:44:31.070Z,102747.97
2023-02-19T19:46:57.767Z,102758.69
2023-02-19T19:49:24.389Z,102755.03
2023-02-19T19:51:51.045Z,102747.06
2023-02-19T19:54:17.610Z,102741.09
2023-02-19T19:56:46.971Z,102735.81
2023-02-19T19:59:16.402Z,102736.00
2023-02-19T20:01:54.565Z,102739.88
2023-02-19T20:04:23.355Z,102738.28
2023-02-19T20:06:50.188Z,102736.78
2023-02-19T20:09:18.078Z,102747.59
2023-02-19T20:11:50.220Z,102756.94
2023-02-19T20:14:18.627Z,102763.38
2023-02-19T20:16:47.393Z,102752.88
2023-02-19T20:19:15.485Z,102747.72
2023-02-19T20:21:46.715Z,102734.63
2023-02-19T20:24:15.363Z,102736.53
2023-02-19T20:26:41.989Z,102744.75
2023-02-19T20:29:10.462Z,102733.41
2023-02-19T20:31:38.494Z,102735.44
2023-02-19T20:34:05.704Z,102731.13
2023-02-19T20:36:32.752Z,102725.97
2023-02-19T20:38:59.403Z,102736.91
2023-02-19T20:41:26.235Z,102729.94
2023-02-19T20:43:52.739Z,102731.13
2023-02-19T20:46:19.313Z,102727.66
2023-02-19T20:48:46.100Z,102736.81
2023-02-19T20:51:12.731Z,102739.69
2023-02-19T20:53:41.373Z,102732.69
2023-02-19T20:56:07.930Z,102730.13
2023-02-19T20:58:34.458Z,102725.94
2023-02-19T21:01:01.191Z,102719.16
2023-02-19T21:03:27.767Z,102712.28
2023-02-19T21:05:54.322Z,102710.75
2023-02-19T21:08:20.888Z,102698.53
2023-02-19T21:10:47.465Z,102693.41
2023-02-19T21:13:14.017Z,102691.66
2023-02-19T21:15:40.660Z,102687.38
2023-02-19T21:18:07.286Z,102682.09
2023-02-19T21:20:34.805Z,102694.66
2023-02-19T21:23:01.871Z,102701.09
2023-02-19T21:25:28.465Z,102702.03
2023-02-19T21:27:54.975Z,102703.97
2023-02-19T21:30:21.617Z,102705.78
2023-02-19T21:32:48.176Z,102709.53
2023-02-19T21:35:15.084Z,102706.09
2023-02-19T21:37:43.397Z,102703.63
2023-02-19T21:40:12.166Z,102711.66
2023-02-19T21:42:39.150Z,102714.53
2023-02-19T21:45:06.126Z,102712.81
2023-02-19T21:47:32.671Z,102713.84
2023-02-19T21:49:59.223Z,102709.59
2023-02-19T21:52:26.924Z,102706.00
2023-02-19T21:54:53.525Z,102705.28
2023-02-19T21:57:20.056Z,102697.34
2023-02-19T21:59:46.711Z,102688.53
2023-02-19T22:02:13.475Z,102687.81
2023-02-19T22:04:40.889Z,102687.03
2023-02-19T22:07:07.443Z,102698.72
2023-02-19T22:09:33.964Z,102690.84
2023-02-19T22:12:00.469Z,102688.25
2023-02-19T22:14:26.975Z,102698.13
2023-02-19T22:16:53.476Z,102691.03
2023-02-19T22:19:20.290Z,102697.34
2023-02-19T22:21:46.829Z,102689.31
2023-02-19T22:24:18.647Z,102677.94
2023-02-19T22:26:45.753Z,102682.25
2023-02-19T22:29:14.599Z,102679.75
2023-02-19T22:31:41.761Z,102683.41
2023-02-19T22:34:09.061Z,102678.06
2023-02-19T22:36:39.666Z,102679.88
2023-02-19T22:39:08.373Z,102675.44
2023-02-19T22:41:34.963Z,102664.84
2023-02-19T22:44:01.964Z,102658.66
2023-02-19T22:46:30.370Z,102660.56
2023-02-19T22:48:57.921Z,102649.84
2023-02-19T22:51:25.234Z,102651.66
2023-02-19T22:53:54.045Z,102648.25
2023-02-19T22:56:23.168Z,102649.09
2023-02-19T22:58:50.310Z,102654.53
2023-02-19T23:01:17.405Z,102639.44
2023-02-19T23:03:48.645Z,102632.38
2023-02-19T23:06:17.435Z,102631.59
2023-02-19T23:08:44.173Z,102632.50
2023-02-19T23:11:12.389Z,102636.94
2023-02-19T23:13:42.440Z,102634.38
2023-02-19T23:16:09.175Z,102633.53
2023-02-19T23:18:35.944Z,102631.81
2023-02-19T23:21:02.463Z,102638.13
2023-02-19T23:23:28.953Z,102644.34
2023-02-19T23:25:55.540Z,102638.13
2023-02-19T23:28:22.153Z,102636.41
2023-02-19T23:30:48.772Z,102640.03
2023-02-19T23:33:15.523Z,102648.06
2023-02-19T23:35:42.027Z,102642.72
2023-02-19T23:38:08.594Z,102645.41
2023-02-19T23:40:35.183Z,102644.53
2023-02-19T23:43:01.722Z,102636.59
2023-02-19T23:45:29.270Z,102633.91
2023-02-19T23:47:56.064Z,102626.84
2023-02-19T23:50:22.575Z,102620.66
2023-02-19T23:52:49.123Z,102602.88
2023-02-19T23:55:15.744Z,102611.75
2023-02-19T23:57:42.280Z,102603.63
